ROMMA est une association bénévole à but non lucratif. Votre soutien est indispensable : ADHERER à ROMMA ou FAIRE un DON

Granges-lès-Beaumont - (26, Drôme)

Drôme des Collines (155 m)   Longitude: 04°58'E   Latitude: 45°03'N Station partenaire n°123
 

Détail journalier du     <<     >>

Température Precipitation Humidité Pression Vent Dir Rafale Dir. rafale Ensol.
Heure (°C) (mm) (%) (hPa) (km/h) (km/h) (min)
01:00 14.307910094N8N0
02:00 14.208110095N8N0
03:00 14.408110084N8N0
04:00 14.608110085N10NNO0
05:00 14.808010083O15NNO0
06:00 14.3082100910N27NNO0
07:00 14.108010099NNO24NNO0
08:00 14.207810109NE21NNE0
09:00 14.407710119NE19ENE0
10:00 15.7074101111NE21ENE0
11:00 18.2059101114NO34NO0
12:00 18.0057101117NNO31NNO0
13:00 18.2059101215N37NNE0
14:00 17.3061101216NNE27NE0
15:00 17.4057101216NE29NE0
16:00 17.9061101115NE31E0
17:00 19.7054101117NE37E40
18:00 18.6050101118NE42NE30
19:00 17.4050101222NE39NE50
20:00 16.1050101316NNO39NNO30
21:00 14.4061101310N26NNE0
22:00 12.207110146NNE10NE0
23:00 12.007110155NNE11N0
minuit 12.406910157NNO16NNO0

Graphique du 28-05-2019

 

Serveur OMMA